createdAt,value
2022-09-01T00:02:36.134Z,31.67
2022-09-01T00:05:18.585Z,31.69
2022-09-01T00:08:07.072Z,31.67
2022-09-01T00:10:50.140Z,31.58
2022-09-01T00:13:41.047Z,31.63
2022-09-01T00:16:23.582Z,31.68
2022-09-01T00:19:13.032Z,31.71
2022-09-01T00:22:03.548Z,31.75
2022-09-01T00:24:46.034Z,31.73
2022-09-01T00:27:35.730Z,31.71
2022-09-01T00:30:18.023Z,31.73
2022-09-01T00:33:13.900Z,31.73
2022-09-01T00:36:03.286Z,31.71
2022-09-01T00:38:52.045Z,31.66
2022-09-01T00:41:46.022Z,31.63
2022-09-01T00:44:36.043Z,31.58
2022-09-01T00:47:18.523Z,31.63
2022-09-01T00:50:08.264Z,31.58
2022-09-01T00:53:01.398Z,31.61
2022-09-01T00:55:45.375Z,31.58
2022-09-01T00:58:34.295Z,31.52
2022-09-01T01:01:18.665Z,31.51
2022-09-01T01:04:09.929Z,31.50
2022-09-01T01:07:10.285Z,31.48
2022-09-01T01:09:59.313Z,31.49
2022-09-01T01:12:48.059Z,31.49
2022-09-01T01:15:37.278Z,31.50
2022-09-01T01:18:23.111Z,31.50
2022-09-01T01:21:35.025Z,31.55
2022-09-01T01:24:24.236Z,31.56
2022-09-01T01:27:14.282Z,31.62
2022-09-01T01:29:58.379Z,31.66
2022-09-01T01:32:51.277Z,31.67
2022-09-01T01:35:47.012Z,31.82
2022-09-01T01:38:36.081Z,31.83
2022-09-01T01:41:22.994Z,31.89
2022-09-01T01:44:13.283Z,31.92
2022-09-01T01:46:58.577Z,31.94
2022-09-01T01:49:52.530Z,32.03
2022-09-01T01:52:35.645Z,32.08
2022-09-01T01:55:27.277Z,32.15
2022-09-01T01:58:19.496Z,32.19
2022-09-01T02:01:12.983Z,32.24
2022-09-01T02:04:00.434Z,32.29
2022-09-01T02:06:48.723Z,32.35
2022-09-01T02:09:30.929Z,32.41
2022-09-01T02:12:19.268Z,32.54
2022-09-01T02:15:03.469Z,32.68
2022-09-01T02:17:52.010Z,32.90
2022-09-01T02:20:35.550Z,33.08
2022-09-01T02:23:31.292Z,33.16
2022-09-01T02:26:17.578Z,33.31
2022-09-01T02:29:13.058Z,33.37
2022-09-01T02:32:05.278Z,33.32
2022-09-01T02:35:08.899Z,33.41
2022-09-01T02:38:06.276Z,33.31
2022-09-01T02:40:52.068Z,33.37
2022-09-01T02:43:41.264Z,33.42
2022-09-01T02:46:24.878Z,33.47
2022-09-01T02:49:16.310Z,33.47
2022-09-01T02:52:02.525Z,33.49
2022-09-01T02:54:55.032Z,33.54
2022-09-01T02:57:44.272Z,33.59
2022-09-01T03:00:38.239Z,33.59
2022-09-01T03:03:25.077Z,33.72
2022-09-01T03:06:15.752Z,33.93
2022-09-01T03:09:02.288Z,33.66
2022-09-01T03:11:56.255Z,34.01
2022-09-01T03:14:38.250Z,34.11
2022-09-01T03:17:27.158Z,34.16
2022-09-01T03:20:16.272Z,34.17
2022-09-01T03:23:06.031Z,34.23
2022-09-01T03:25:50.425Z,34.20
2022-09-01T03:28:39.041Z,34.24
2022-09-01T03:31:22.584Z,34.44
2022-09-01T03:34:14.051Z,34.42
2022-09-01T03:37:15.189Z,34.54
2022-09-01T03:40:05.313Z,34.65
2022-09-01T03:42:48.273Z,34.58
2022-09-01T03:45:31.726Z,34.76
2022-09-01T03:48:24.271Z,34.59
2022-09-01T03:51:15.417Z,34.79
2022-09-01T03:54:02.284Z,34.83
2022-09-01T03:56:44.916Z,34.59
2022-09-01T03:59:36.009Z,34.99
2022-09-01T04:02:26.087Z,34.99
2022-09-01T04:05:08.964Z,35.04
2022-09-01T04:07:58.023Z,35.17
2022-09-01T04:10:48.841Z,35.12
2022-09-01T04:13:47.073Z,35.16
2022-09-01T04:16:51.876Z,35.21
2022-09-01T04:19:47.063Z,35.24
2022-09-01T04:22:33.721Z,35.51
2022-09-01T04:25:23.248Z,35.48
2022-09-01T04:28:20.188Z,35.70
2022-09-01T04:31:15.668Z,35.91
2022-09-01T04:34:01.033Z,35.93
2022-09-01T04:36:45.723Z,36.36
2022-09-01T04:39:38.031Z,36.60
2022-09-01T04:42:31.284Z,36.78
2022-09-01T04:45:19.975Z,37.16
2022-09-01T04:48:09.285Z,37.50
2022-09-01T04:50:53.131Z,37.59
2022-09-01T04:53:48.296Z,37.92
2022-09-01T04:56:36.627Z,37.56
2022-09-01T04:59:31.283Z,37.86
2022-09-01T05:02:13.251Z,38.26
2022-09-01T05:05:03.279Z,37.93
2022-09-01T05:07:45.571Z,38.18
2022-09-01T05:10:37.261Z,38.24
2022-09-01T05:13:30.422Z,38.13
2022-09-01T05:16:25.386Z,38.32
2022-09-01T05:19:08.209Z,38.11
2022-09-01T05:21:57.023Z,38.58
2022-09-01T05:24:42.320Z,38.91
2022-09-01T05:27:33.291Z,39.00
2022-09-01T05:30:17.981Z,38.49
2022-09-01T05:33:07.279Z,38.92
2022-09-01T05:35:53.242Z,39.12
2022-09-01T05:38:44.047Z,39.31
2022-09-01T05:41:29.227Z,38.44
2022-09-01T05:44:19.024Z,38.86
2022-09-01T05:47:09.694Z,39.36
2022-09-01T05:50:06.032Z,39.49
2022-09-01T05:52:49.023Z,39.64
2022-09-01T05:55:42.893Z,39.12
2022-09-01T05:58:25.836Z,39.35
2022-09-01T06:01:18.032Z,39.77
2022-09-01T06:04:06.590Z,39.18
2022-09-01T06:07:06.718Z,39.17
2022-09-01T06:09:55.322Z,39.04
2022-09-01T06:12:44.264Z,39.21
2022-09-01T06:15:33.258Z,39.01
2022-09-01T06:18:16.225Z,39.01
2022-09-01T06:21:12.278Z,38.86
2022-09-01T06:23:55.511Z,38.84
2022-09-01T06:26:48.274Z,38.48
2022-09-01T06:29:32.301Z,38.70
2022-09-01T06:32:22.304Z,38.82
2022-09-01T06:35:12.798Z,38.91
2022-09-01T06:37:56.025Z,39.04
2022-09-01T06:40:56.685Z,39.06
2022-09-01T06:43:40.570Z,39.57
2022-09-01T06:46:30.587Z,39.33
2022-09-01T06:49:12.992Z,38.68
2022-09-01T06:51:57.164Z,38.09
2022-09-01T06:54:49.251Z,38.06
2022-09-01T07:00:43.181Z,38.08
2022-09-01T07:03:33.317Z,38.00
2022-09-01T07:10:17.773Z,37.38
2022-09-01T07:13:18.040Z,37.33
2022-09-01T07:16:33.356Z,37.56
2022-09-01T07:19:48.281Z,37.50
2022-09-01T07:22:38.526Z,37.07
2022-09-01T07:26:01.407Z,37.01
2022-09-01T07:28:50.294Z,36.83
2022-09-01T07:34:50.099Z,36.83
2022-09-01T07:44:09.676Z,37.01
2022-09-01T07:51:34.221Z,37.27
2022-09-01T07:53:44.265Z,37.68
2022-09-01T07:56:37.574Z,38.02
2022-09-01T07:59:29.002Z,37.98
2022-09-01T08:02:22.661Z,37.75
2022-09-01T08:05:12.266Z,38.00
2022-09-01T08:08:02.322Z,38.12
2022-09-01T08:10:49.235Z,38.03
2022-09-01T08:13:31.289Z,38.09
2022-09-01T08:16:22.346Z,37.94
2022-09-01T08:19:19.123Z,38.15
2022-09-01T08:22:25.129Z,38.44
2022-09-01T08:25:21.780Z,38.34
2022-09-01T08:28:14.033Z,38.17
2022-09-01T08:30:56.997Z,37.95
2022-09-01T08:33:46.045Z,38.38
2022-09-01T08:36:28.206Z,38.24
2022-09-01T08:39:18.256Z,38.26
2022-09-01T08:42:34.120Z,38.10
2022-09-01T08:46:02.962Z,38.02
2022-09-01T08:52:32.925Z,37.72
2022-09-01T08:55:22.239Z,37.92
2022-09-01T08:58:15.930Z,37.52
2022-09-01T09:02:02.633Z,37.61
2022-09-01T09:05:45.189Z,38.08
2022-09-01T09:08:52.125Z,36.84
2022-09-01T09:11:43.515Z,36.30
2022-09-01T09:14:53.044Z,36.02
2022-09-01T09:17:43.432Z,36.24
2022-09-01T09:20:32.322Z,36.34
2022-09-01T09:23:27.532Z,36.10
2022-09-01T09:26:21.658Z,36.27
2022-09-01T09:29:10.957Z,36.30
2022-09-01T09:32:44.936Z,36.50
2022-09-01T09:35:41.317Z,36.25
2022-09-01T09:38:33.858Z,36.12
2022-09-01T09:41:27.608Z,36.50
2022-09-01T09:44:38.321Z,35.83
2022-09-01T09:47:49.933Z,36.42
2022-09-01T09:50:35.475Z,36.65
2022-09-01T09:53:26.934Z,36.82
2022-09-01T09:56:19.700Z,36.92
2022-09-01T09:59:08.325Z,36.91
2022-09-01T10:01:54.125Z,36.81
2022-09-01T10:04:51.486Z,36.75
2022-09-01T10:07:45.355Z,36.73
2022-09-01T10:10:48.753Z,36.87
2022-09-01T10:13:40.372Z,36.86
2022-09-01T10:16:43.998Z,36.93
2022-09-01T10:19:36.627Z,36.69
2022-09-01T10:22:19.077Z,36.88
2022-09-01T10:25:10.405Z,36.78
2022-09-01T10:27:59.184Z,36.98
2022-09-01T10:30:45.206Z,37.01
2022-09-01T10:33:43.028Z,36.78
2022-09-01T10:36:32.249Z,36.74
2022-09-01T10:39:21.978Z,36.94
2022-09-01T10:42:25.904Z,37.09
2022-09-01T10:45:33.249Z,36.92
2022-09-01T10:48:33.389Z,37.00
2022-09-01T10:51:35.497Z,36.92
2022-09-01T10:54:51.841Z,36.84
2022-09-01T10:58:07.773Z,36.99
2022-09-01T11:01:40.292Z,36.96
2022-09-01T11:04:05.424Z,36.89
2022-09-01T11:07:17.877Z,36.87
2022-09-01T11:10:57.269Z,36.75
2022-09-01T11:13:56.289Z,36.63
2022-09-01T11:16:49.610Z,36.71
2022-09-01T11:19:44.128Z,36.61
2022-09-01T11:22:38.090Z,36.55
2022-09-01T11:25:45.106Z,36.56
2022-09-01T11:28:46.892Z,36.27
2022-09-01T11:31:49.304Z,36.22
2022-09-01T11:34:34.542Z,36.00
2022-09-01T11:37:28.280Z,36.14
2022-09-01T11:40:14.728Z,35.88
2022-09-01T11:43:05.088Z,36.09
2022-09-01T11:45:59.324Z,36.06
2022-09-01T11:48:53.203Z,36.05
2022-09-01T11:51:35.291Z,35.81
2022-09-01T11:54:24.161Z,35.77
2022-09-01T11:57:06.294Z,35.81
2022-09-01T11:59:55.312Z,35.78
2022-09-01T12:02:53.655Z,35.77
2022-09-01T12:05:48.279Z,35.86
2022-09-01T12:08:31.620Z,35.68
2022-09-01T12:11:28.266Z,35.57
2022-09-01T12:14:16.292Z,35.78
2022-09-01T12:17:14.258Z,35.58
2022-09-01T12:19:56.396Z,35.55
2022-09-01T12:22:45.031Z,35.70
2022-09-01T12:25:41.538Z,35.74
2022-09-01T12:28:38.968Z,35.73
2022-09-01T12:31:34.344Z,35.84
2022-09-01T12:34:41.267Z,35.92
2022-09-01T12:37:34.054Z,35.84
2022-09-01T12:40:39.632Z,35.74
2022-09-01T12:43:40.062Z,35.81
2022-09-01T12:46:55.239Z,35.71
2022-09-01T12:50:03.528Z,35.89
2022-09-01T12:53:00.330Z,35.80
2022-09-01T12:55:51.048Z,35.77
2022-09-01T12:58:34.024Z,35.87
2022-09-01T13:01:24.100Z,35.64
2022-09-01T13:04:37.606Z,35.63
2022-09-01T13:07:19.034Z,35.43
2022-09-01T13:10:01.406Z,35.54
2022-09-01T13:12:56.056Z,35.62
2022-09-01T13:15:48.306Z,35.45
2022-09-01T13:21:48.157Z,35.41
2022-09-01T13:24:31.632Z,35.35
2022-09-01T13:27:22.468Z,35.28
2022-09-01T13:30:04.678Z,35.06
2022-09-01T13:36:42.700Z,35.46
2022-09-01T13:39:12.564Z,35.39
2022-09-01T13:41:55.280Z,35.16
2022-09-01T13:44:44.116Z,35.25
2022-09-01T13:47:30.055Z,35.32
2022-09-01T13:51:14.148Z,35.31
2022-09-01T13:53:38.921Z,35.23
2022-09-01T13:56:28.283Z,35.03
2022-09-01T13:59:10.193Z,35.00
2022-09-01T14:01:58.958Z,35.08
2022-09-01T14:04:48.599Z,35.03
2022-09-01T14:07:33.550Z,34.98
2022-09-01T14:10:23.111Z,34.83
2022-09-01T14:13:06.913Z,34.85
2022-09-01T14:15:57.109Z,34.88
2022-09-01T14:18:39.696Z,34.83
2022-09-01T14:21:28.263Z,34.82
2022-09-01T14:24:10.490Z,34.84
2022-09-01T14:26:58.917Z,34.74
2022-09-01T14:32:34.345Z,34.86
2022-09-01T14:35:16.470Z,34.75
2022-09-01T14:38:06.060Z,34.59
2022-09-01T14:40:49.963Z,34.41
2022-09-01T14:43:40.368Z,34.52
2022-09-01T14:46:22.816Z,34.51
2022-09-01T14:49:12.305Z,34.58
2022-09-01T14:52:10.762Z,34.57
2022-09-01T14:55:00.531Z,34.56
2022-09-01T14:57:48.957Z,34.32
2022-09-01T15:00:39.065Z,34.32
2022-09-01T15:03:22.993Z,34.25
2022-09-01T15:06:12.040Z,34.21
2022-09-01T15:08:55.404Z,34.12
2022-09-01T15:11:45.641Z,34.22
2022-09-01T15:14:28.134Z,34.14
2022-09-01T15:17:18.285Z,34.11
2022-09-01T15:20:27.170Z,34.03
2022-09-01T15:23:18.325Z,34.00
2022-09-01T15:26:03.310Z,33.90
2022-09-01T15:28:56.237Z,33.87
2022-09-01T15:31:39.304Z,33.85
2022-09-01T15:34:28.247Z,33.80
2022-09-01T15:37:11.021Z,33.73
2022-09-01T15:39:59.961Z,33.68
2022-09-01T15:42:50.203Z,33.74
2022-09-01T15:45:39.021Z,33.70
2022-09-01T15:48:21.539Z,33.70
2022-09-01T15:51:31.949Z,33.71
2022-09-01T15:54:33.308Z,33.72
2022-09-01T15:57:15.368Z,33.64
2022-09-01T16:00:05.074Z,33.49
2022-09-01T16:02:47.286Z,33.51
2022-09-01T16:05:36.310Z,33.52
2022-09-01T16:08:18.318Z,33.54
2022-09-01T16:11:08.023Z,33.42
2022-09-01T16:13:54.634Z,33.54
2022-09-01T16:17:02.637Z,33.45
2022-09-01T16:19:47.337Z,33.44
2022-09-01T16:22:52.262Z,33.47
2022-09-01T16:25:42.518Z,33.50
2022-09-01T16:28:43.911Z,33.34
2022-09-01T16:31:32.292Z,33.34
2022-09-01T16:34:30.914Z,33.32
2022-09-01T16:38:16.472Z,33.32
2022-09-01T16:41:03.999Z,33.40
2022-09-01T16:44:27.453Z,33.42
2022-09-01T16:47:44.272Z,33.32
2022-09-01T16:51:02.318Z,33.39
2022-09-01T16:54:18.024Z,33.32
2022-09-01T16:57:39.695Z,33.33
2022-09-01T17:00:38.995Z,33.26
2022-09-01T17:03:43.196Z,33.25
2022-09-01T17:06:37.340Z,33.16
2022-09-01T17:09:37.270Z,33.20
2022-09-01T17:12:34.899Z,33.19
2022-09-01T17:15:39.322Z,33.18
2022-09-01T17:18:45.151Z,33.14
2022-09-01T17:21:53.268Z,33.13
2022-09-01T17:24:51.579Z,33.08
2022-09-01T17:28:06.033Z,33.10
2022-09-01T17:31:08.191Z,32.97
2022-09-01T17:34:14.919Z,32.99
2022-09-01T17:37:30.245Z,32.95
2022-09-01T17:40:36.385Z,32.91
2022-09-01T17:43:21.855Z,32.83
2022-09-01T17:46:21.059Z,32.86
2022-09-01T17:49:17.951Z,32.82
2022-09-01T17:52:39.302Z,32.81
2022-09-01T17:55:38.046Z,32.71
2022-09-01T17:58:57.703Z,32.73
2022-09-01T18:01:51.305Z,32.73
2022-09-01T18:05:00.111Z,32.72
2022-09-01T18:07:53.088Z,32.70
2022-09-01T18:10:59.400Z,32.70
2022-09-01T18:13:59.529Z,32.67
2022-09-01T18:17:29.231Z,32.64
2022-09-01T18:20:25.208Z,32.60
2022-09-01T18:23:27.526Z,32.61
2022-09-01T18:26:35.407Z,32.53
2022-09-01T18:29:29.562Z,32.55
2022-09-01T18:32:42.705Z,32.54
2022-09-01T18:35:40.370Z,32.64
2022-09-01T18:38:43.927Z,32.67
2022-09-01T18:42:03.248Z,32.66
2022-09-01T18:45:13.791Z,32.65
2022-09-01T18:48:14.285Z,32.61
2022-09-01T18:51:20.712Z,32.57
2022-09-01T18:54:15.262Z,32.55
2022-09-01T18:57:14.977Z,32.55
2022-09-01T19:00:30.628Z,32.55
2022-09-01T19:03:33.362Z,32.49
2022-09-01T19:06:20.260Z,32.47
2022-09-01T19:09:07.672Z,32.44
2022-09-01T19:12:23.040Z,32.48
2022-09-01T19:15:31.190Z,32.51
2022-09-01T19:18:32.267Z,32.48
2022-09-01T19:21:39.991Z,32.50
2022-09-01T19:24:48.695Z,32.50
2022-09-01T19:27:40.225Z,32.50
2022-09-01T19:30:22.428Z,32.47
2022-09-01T19:33:14.230Z,32.42
2022-09-01T19:35:59.764Z,32.41
2022-09-01T19:38:48.261Z,32.37
2022-09-01T19:41:34.810Z,32.42
2022-09-01T19:44:28.261Z,32.41
2022-09-01T19:47:26.067Z,32.42
2022-09-01T19:50:29.259Z,32.40
2022-09-01T19:53:39.449Z,32.36
2022-09-01T19:56:49.600Z,32.36
2022-09-01T20:00:08.289Z,32.35
2022-09-01T20:02:59.189Z,32.29
2022-09-01T20:05:56.377Z,32.30
2022-09-01T20:08:41.257Z,32.29
2022-09-01T20:11:45.018Z,32.26
2022-09-01T20:15:11.267Z,32.23
2022-09-01T20:18:06.300Z,32.16
2022-09-01T20:20:55.484Z,32.17
2022-09-01T20:24:10.911Z,32.14
2022-09-01T20:27:21.227Z,32.09
2022-09-01T20:30:21.089Z,32.10
2022-09-01T20:33:32.620Z,32.05
2022-09-01T20:36:50.178Z,32.04
2022-09-01T20:40:06.361Z,32.01
2022-09-01T20:43:07.174Z,32.00
2022-09-01T20:45:49.613Z,31.97
2022-09-01T20:48:39.265Z,31.99
2022-09-01T20:51:40.914Z,31.96
2022-09-01T20:54:41.141Z,31.98
2022-09-01T20:58:00.107Z,31.96
2022-09-01T21:01:03.935Z,31.99
2022-09-01T21:04:09.527Z,31.98
2022-09-01T21:07:01.891Z,31.90
2022-09-01T21:10:25.011Z,31.89
2022-09-01T21:13:44.982Z,31.86
2022-09-01T21:17:06.095Z,31.91
2022-09-01T21:20:03.234Z,31.86
2022-09-01T21:22:51.844Z,31.78
2022-09-01T21:25:33.277Z,31.80
2022-09-01T21:28:27.237Z,31.83
2022-09-01T21:31:09.950Z,31.76
2022-09-01T21:34:00.001Z,31.83
2022-09-01T21:36:42.574Z,31.76
2022-09-01T21:39:31.125Z,31.73
2022-09-01T21:42:15.188Z,31.71
2022-09-01T21:45:06.231Z,31.73
2022-09-01T21:47:49.324Z,31.75
2022-09-01T21:50:37.990Z,31.74
2022-09-01T21:53:21.355Z,31.70
2022-09-01T21:56:09.998Z,31.70
2022-09-01T21:58:52.257Z,31.73
2022-09-01T22:01:49.889Z,31.73
2022-09-01T22:04:38.157Z,31.69
2022-09-01T22:07:24.036Z,31.67
2022-09-01T22:10:11.154Z,31.72
2022-09-01T22:13:02.268Z,31.69
2022-09-01T22:15:53.572Z,31.66
2022-09-01T22:18:35.017Z,31.67
2022-09-01T22:21:23.920Z,31.67
2022-09-01T22:24:12.894Z,31.68
2022-09-01T22:27:07.928Z,31.57
2022-09-01T22:29:56.996Z,31.55
2022-09-01T22:32:40.710Z,31.54
2022-09-01T22:35:31.182Z,31.56
2022-09-01T22:38:20.140Z,31.55
2022-09-01T22:41:05.360Z,31.51
2022-09-01T22:43:54.901Z,31.51
2022-09-01T22:46:37.272Z,31.53
2022-09-01T22:49:26.237Z,31.47
2022-09-01T22:52:09.251Z,31.46
2022-09-01T22:54:58.240Z,31.45
2022-09-01T22:57:42.149Z,31.44
2022-09-01T23:00:31.912Z,31.39
2022-09-01T23:03:27.183Z,31.38
2022-09-01T23:06:25.291Z,31.36
2022-09-01T23:09:11.511Z,31.33
2022-09-01T23:11:59.889Z,31.35
2022-09-01T23:14:41.426Z,31.31
2022-09-01T23:17:30.325Z,31.32
2022-09-01T23:20:15.551Z,31.29
2022-09-01T23:23:03.978Z,31.33
2022-09-01T23:25:52.888Z,31.30
2022-09-01T23:28:43.141Z,31.25
2022-09-01T23:31:36.025Z,31.21
2022-09-01T23:34:25.228Z,31.24
2022-09-01T23:37:08.310Z,31.23
2022-09-01T23:39:56.983Z,31.21
2022-09-01T23:42:46.238Z,31.21
2022-09-01T23:45:37.077Z,31.20
2022-09-01T23:48:20.546Z,31.22
2022-09-01T23:51:16.288Z,31.28
2022-09-01T23:53:59.498Z,31.21
2022-09-01T23:56:49.236Z,31.22
2022-09-01T23:59:31.530Z,31.22
